Time;durP1;ratioP1;P1;durP2;ratioP2;P2;SDS_P1;SDS_P2;PMS_P1;PMS_P2;Temp;Humidity;BMP_temperature;BMP_pressure;BME280_temperature;BME280_humidity;BME280_pressure;Samples;Min_cycle;Max_cycle;Signal;HPM_P1;HPM_P2
2021/08/11 00:02:29;;;;;;;5.80;4.20;;;;;;;17.22;77.96;98795.30;262735;1090;23841;-75
2021/08/11 00:07:45;;;;;;;5.27;4.47;;;;;;;17.04;78.16;98792.75;262685;1089;26012;-74
2021/08/11 00:12:50;;;;;;;7.60;4.70;;;;;;;16.91;78.26;98788.38;262670;1089;24361;-74
2021/08/11 00:18:00;;;;;;;6.30;4.25;;;;;;;16.82;78.91;98785.72;262804;1089;24323;-73
2021/08/11 00:23:03;;;;;;;6.73;4.83;;;;;;;16.71;79.05;98792.64;262665;1089;27297;-74
2021/08/11 00:28:09;;;;;;;7.30;4.37;;;;;;;16.69;79.53;98786.75;262721;1090;24600;-74
2021/08/11 00:33:13;;;;;;;5.70;3.75;;;;;;;16.78;79.73;98794.83;262810;1089;25990;-74
2021/08/11 00:38:16;;;;;;;8.20;4.67;;;;;;;16.85;79.79;98795.09;262675;1090;22944;-74
2021/08/11 00:43:20;;;;;;;6.30;5.25;;;;;;;16.91;79.77;98789.19;262776;1089;25841;-74
2021/08/11 00:48:27;;;;;;;9.07;5.40;;;;;;;16.95;79.70;98783.89;262780;1087;22776;-75
2021/08/11 00:53:33;;;;;;;6.90;5.30;;;;;;;16.93;79.59;98781.52;262684;1088;22811;-74
2021/08/11 00:58:38;;;;;;;7.40;5.55;;;;;;;16.90;79.50;98798.42;262861;1090;27288;-74
2021/08/11 01:03:43;;;;;;;8.00;5.57;;;;;;;16.81;79.57;98789.53;262791;1088;22953;-74
2021/08/11 01:08:47;;;;;;;9.60;5.95;;;;;;;16.69;79.44;98792.16;262780;1089;22778;-74
2021/08/11 01:13:51;;;;;;;7.90;6.10;;;;;;;16.59;79.44;98791.44;262802;1089;25893;-75
2021/08/11 01:18:56;;;;;;;9.20;6.40;;;;;;;16.48;79.48;98779.42;262795;1089;22833;-74
2021/08/11 01:24:19;;;;;;;6.70;5.65;;;;;;;16.41;79.93;98785.34;262986;1089;25909;-74
2021/08/11 01:29:37;;;;;;;8.30;5.40;;;;;;;16.33;79.83;98779.98;262734;1089;22770;-74
2021/08/11 01:34:50;;;;;;;6.75;5.60;;;;;;;16.28;80.39;98786.35;262834;1090;22931;-74
2021/08/11 01:39:59;;;;;;;6.27;5.13;;;;;;;16.21;80.52;98780.67;262655;1089;22793;-75
2021/08/11 01:45:15;;;;;;;6.77;5.07;;;;;;;16.18;80.42;98776.70;262710;1089;22930;-74
2021/08/11 01:50:28;;;;;;;7.60;4.90;;;;;;;16.16;80.42;98768.14;262956;1088;24322;-73
2021/08/11 01:55:33;;;;;;;7.33;5.63;;;;;;;16.12;80.64;98771.80;262756;1090;23763;-75
2021/08/11 02:00:37;;;;;;;6.77;5.50;;;;;;;16.01;80.65;98780.28;262839;1090;22869;-75
2021/08/11 02:05:58;;;;;;;8.37;6.27;;;;;;;15.94;80.84;98784.61;262833;1090;22830;-74
2021/08/11 02:11:14;;;;;;;6.00;5.10;;;;;;;15.87;80.97;98787.80;262890;1089;22809;-74
2021/08/11 02:16:20;;;;;;;7.65;5.70;;;;;;;15.73;81.10;98777.17;262596;1088;24460;-75
2021/08/11 02:21:23;;;;;;;6.90;5.73;;;;;;;15.64;81.28;98781.80;262746;1090;27167;-76
2021/08/11 02:26:59;;;;;;;9.05;5.65;;;;;;;15.56;81.79;98786.12;262764;1090;24152;-74
2021/08/11 02:32:38;;;;;;;7.30;5.57;;;;;;;15.49;81.79;98786.59;262518;1088;22859;-74
2021/08/11 02:38:19;;;;;;;6.80;5.20;;;;;;;15.49;82.32;98789.30;262716;1089;25487;-74
2021/08/11 02:44:04;;;;;;;6.25;4.60;;;;;;;15.45;82.16;98806.47;262822;1090;25909;-74
2021/08/11 02:49:21;;;;;;;7.17;5.23;;;;;;;15.43;82.38;98778.98;262716;1088;22889;-74
2021/08/11 02:54:30;;;;;;;6.27;5.67;;;;;;;15.38;82.69;98788.05;262703;1088;26506;-74
2021/08/11 02:59:35;;;;;;;8.70;5.27;;;;;;;15.27;82.53;98792.97;262840;1090;22860;-75
2021/08/11 03:04:41;;;;;;;6.15;5.10;;;;;;;15.18;82.91;98805.66;263070;1088;24155;-74
2021/08/11 03:09:45;;;;;;;8.73;5.37;;;;;;;15.16;83.16;98814.08;262825;1088;22783;-75
2021/08/11 03:14:49;;;;;;;6.63;5.97;;;;;;;15.17;83.23;98821.07;262783;1088;22790;-74
2021/08/11 03:19:53;;;;;;;6.75;5.15;;;;;;;15.18;83.54;98819.16;262823;1090;22763;-73
2021/08/11 03:24:56;;;;;;;6.90;5.80;;;;;;;15.15;83.47;98822.49;262723;1089;22943;-75
2021/08/11 03:30:00;;;;;;;7.70;5.75;;;;;;;15.09;83.32;98832.66;262296;1090;22959;-74
2021/08/11 03:35:05;;;;;;;9.30;5.87;;;;;;;15.07;83.45;98834.89;262485;1089;25989;-74
2021/08/11 03:40:09;;;;;;;7.30;5.65;;;;;;;15.05;83.53;98829.00;262926;1090;25881;-75
2021/08/11 03:45:25;;;;;;;7.35;5.35;;;;;;;15.02;83.51;98818.84;262718;1089;25149;-75
2021/08/11 03:50:37;;;;;;;6.33;5.73;;;;;;;15.00;83.66;98818.38;262677;1089;24342;-74
2021/08/11 03:55:52;;;;;;;11.60;6.15;;;;;;;14.99;83.74;98822.19;262463;1090;24175;-75
2021/08/11 04:00:56;;;;;;;6.93;5.73;;;;;;;15.00;83.96;98823.78;262800;1089;22786;-75
2021/08/11 04:05:59;;;;;;;7.80;5.60;;;;;;;15.02;84.11;98819.63;262780;1089;26334;-74
2021/08/11 04:11:17;;;;;;;7.05;6.00;;;;;;;15.05;84.20;98818.20;262625;1090;22806;-74
2021/08/11 04:16:41;;;;;;;6.45;5.85;;;;;;;15.10;84.38;98819.97;262735;1089;22980;-74
2021/08/11 04:21:45;;;;;;;7.45;5.85;;;;;;;15.15;84.35;98828.70;262841;1089;25765;-74
2021/08/11 04:26:48;;;;;;;8.70;6.30;;;;;;;15.20;84.48;98835.84;262705;1090;22806;-74
2021/08/11 04:31:51;;;;;;;9.10;6.30;;;;;;;15.31;84.63;98833.63;262757;1089;24482;-76
2021/08/11 04:37:06;;;;;;;11.13;6.10;;;;;;;15.43;84.74;98835.66;262715;1090;26392;-75
2021/08/11 04:42:10;;;;;;;7.20;5.35;;;;;;;15.53;84.52;98833.44;262717;1090;22811;-75
2021/08/11 04:47:13;;;;;;;7.40;5.53;;;;;;;15.61;84.30;98831.83;262781;1089;23255;-75
2021/08/11 04:52:23;;;;;;;7.45;5.45;;;;;;;15.72;84.14;98832.29;262747;1089;23391;-74
2021/08/11 04:57:34;;;;;;;7.25;6.05;;;;;;;15.87;84.21;98839.91;262758;1089;22764;-75
2021/08/11 05:02:38;;;;;;;6.00;5.40;;;;;;;16.05;84.33;98842.58;262930;1089;22773;-74
2021/08/11 05:07:41;;;;;;;8.30;5.83;;;;;;;16.25;84.17;98833.73;262771;1089;24173;-75
2021/08/11 05:12:45;;;;;;;7.55;5.90;;;;;;;16.45;84.00;98839.53;262734;1089;22917;-75
2021/08/11 05:17:48;;;;;;;7.15;6.00;;;;;;;16.66;83.78;98836.91;262906;1090;26398;-75
2021/08/11 05:22:51;;;;;;;5.85;5.30;;;;;;;16.82;83.00;98829.00;262834;1089;25993;-74
2021/08/11 05:27:56;;;;;;;8.30;5.97;;;;;;;16.95;82.92;98835.30;262768;1089;24506;-75
2021/08/11 05:32:59;;;;;;;6.33;5.63;;;;;;;17.14;82.95;98848.39;262986;1089;27609;-75
2021/08/11 05:38:05;;;;;;;8.35;5.80;;;;;;;17.30;82.52;98853.98;262773;1089;23346;-75
2021/08/11 05:43:08;;;;;;;8.03;5.43;;;;;;;17.47;82.33;98869.30;262985;1088;22770;-75
2021/08/11 05:48:11;;;;;;;8.25;5.85;;;;;;;17.61;81.89;98875.24;263131;1088;22785;-74
2021/08/11 05:53:14;;;;;;;7.13;6.33;;;;;;;17.73;81.63;98879.90;263938;1088;24349;-74
2021/08/11 05:58:18;;;;;;;8.10;5.70;;;;;;;17.90;81.31;98892.48;262663;1090;22754;-75
2021/08/11 06:03:27;;;;;;;5.80;5.20;;;;;;;18.07;80.83;98877.98;263469;1089;23724;-75
2021/08/11 06:08:40;;;;;;;6.40;5.30;;;;;;;18.28;80.28;98898.81;263652;1089;26672;-75
2021/08/11 06:13:51;;;;;;;6.40;5.20;;;;;;;18.36;78.96;98889.02;263764;1089;26243;-75
2021/08/11 06:19:01;;;;;;;7.75;5.85;;;;;;;18.46;79.11;98889.34;263813;1089;25951;-75
2021/08/11 06:24:12;;;;;;;7.00;5.20;;;;;;;18.61;78.66;98882.46;263155;1089;22841;-76
2021/08/11 06:29:29;;;;;;;6.93;5.43;;;;;;;18.84;78.23;98887.42;262994;1088;26254;-75
2021/08/11 06:34:32;;;;;;;6.50;4.70;;;;;;;18.97;78.11;98891.75;263488;1089;22769;-75
2021/08/11 06:39:43;;;;;;;7.50;5.35;;;;;;;19.11;77.86;98894.09;263325;1088;25992;-76
2021/08/11 06:44:46;;;;;;;8.50;4.90;;;;;;;19.31;77.05;98897.78;263458;1088;22862;-75
2021/08/11 06:49:52;;;;;;;6.50;4.70;;;;;;;19.55;77.07;98896.13;264512;1089;26114;-76
2021/08/11 06:54:57;;;;;;;4.75;4.10;;;;;;;19.79;76.27;98902.59;262987;1090;22773;-75
2021/08/11 07:00:11;;;;;;;5.83;4.97;;;;;;;20.00;75.83;98905.91;263188;1090;22796;-75
2021/08/11 07:05:34;;;;;;;10.23;5.63;;;;;;;20.28;74.56;98918.67;263426;1089;24149;-75
2021/08/11 07:10:38;;;;;;;6.07;4.73;;;;;;;20.60;74.07;98928.78;263403;1089;23422;-75
2021/08/11 07:15:50;;;;;;;5.18;4.65;;;;;;;20.84;73.08;98914.99;263060;1089;25974;-76
2021/08/11 07:20:53;;;;;;;5.60;5.00;;;;;;;20.91;71.98;98919.82;263176;1088;22770;-74
2021/08/11 07:25:56;;;;;;;5.75;4.35;;;;;;;21.07;71.46;98919.00;263163;1090;25976;-75
2021/08/11 07:30:59;;;;;;;7.45;6.00;;;;;;;21.12;70.99;98932.34;263218;1089;25849;-76
2021/08/11 07:36:03;;;;;;;7.57;6.13;;;;;;;21.25;71.23;98922.92;263232;1088;25880;-76
2021/08/11 07:41:06;;;;;;;7.65;5.20;;;;;;;21.46;70.10;98914.41;263404;1090;25861;-75
2021/08/11 07:46:10;;;;;;;5.50;5.00;;;;;;;21.57;69.38;98920.09;263693;1088;26082;-75
2021/08/11 07:51:13;;;;;;;5.83;5.23;;;;;;;21.60;69.39;98921.31;266452;1090;22806;-75
2021/08/11 07:56:16;;;;;;;6.30;4.83;;;;;;;21.65;67.97;98916.36;263231;1089;22825;-75
2021/08/11 08:01:19;;;;;;;6.53;5.50;;;;;;;21.84;67.98;98923.75;263204;1090;23407;-75
2021/08/11 08:06:23;;;;;;;4.73;4.28;;;;;;;21.94;67.03;98933.28;263438;1088;23715;-74
2021/08/11 08:11:27;;;;;;;3.70;3.08;;;;;;;21.99;66.34;98941.19;263443;1089;22773;-75
2021/08/11 08:16:32;;;;;;;5.20;3.95;;;;;;;22.08;65.56;98937.41;265828;1089;22943;-75
2021/08/11 08:21:35;;;;;;;3.45;3.15;;;;;;;22.18;64.89;98950.48;263416;1088;22936;-75
2021/08/11 08:26:42;;;;;;;3.63;3.10;;;;;;;22.21;64.57;98930.66;263576;1090;24314;-75
2021/08/11 08:31:52;;;;;;;3.15;2.85;;;;;;;22.41;64.31;98936.87;267150;1089;22894;-74
2021/08/11 08:36:56;;;;;;;3.65;2.95;;;;;;;22.52;62.84;98929.64;263868;1089;22861;-75
2021/08/11 08:42:00;;;;;;;4.70;2.33;;;;;;;22.67;61.16;98933.41;263742;1088;22776;-74
2021/08/11 08:47:03;;;;;;;4.70;2.50;;;;;;;22.75;61.15;98936.25;263808;1088;22762;-74
2021/08/11 08:52:08;;;;;;;2.90;2.60;;;;;;;22.92;60.31;98937.67;263163;1090;25257;-75
2021/08/11 08:57:14;;;;;;;3.70;2.30;;;;;;;23.07;59.50;98932.07;263453;1088;22770;-75
2021/08/11 09:02:17;;;;;;;5.05;3.20;;;;;;;23.16;58.54;98936.51;263038;1090;22879;-75
2021/08/11 09:07:21;;;;;;;4.20;3.80;;;;;;;23.22;58.59;98932.29;262976;1088;22767;-75
2021/08/11 09:12:24;;;;;;;3.73;3.20;;;;;;;23.29;57.68;98926.92;262906;1089;25528;-75
2021/08/11 09:17:39;;;;;;;5.58;3.50;;;;;;;23.36;58.08;98931.70;262838;1089;22783;-75
2021/08/11 09:22:47;;;;;;;3.63;3.08;;;;;;;23.45;57.70;98928.67;263275;1090;22950;-74
2021/08/11 09:27:51;;;;;;;;;;;;;;;23.50;58.00;98942.03;263104;1089;22769;-74
2021/08/11 09:33:04;;;;;;;4.48;3.83;;;;;;;23.54;57.30;98934.66;263250;1090;21456;-74
2021/08/11 09:38:12;;;;;;;8.35;7.33;;;;;;;23.56;56.78;98932.33;263245;1088;23330;-75
2021/08/11 09:43:32;;;;;;;3.70;3.40;;;;;;;23.56;56.84;98930.40;263551;1090;22772;-74
2021/08/11 09:48:43;;;;;;;5.85;4.70;;;;;;;23.73;56.49;98933.73;263939;1090;22776;-75
2021/08/11 09:53:47;;;;;;;6.23;4.23;;;;;;;23.81;55.64;98935.39;263376;1089;22918;-75
2021/08/11 09:59:05;;;;;;;5.10;3.40;;;;;;;24.00;55.48;98933.66;265746;1089;22804;-75
2021/08/11 10:04:23;;;;;;;3.68;3.33;;;;;;;24.24;55.24;98937.80;263955;1088;23027;-75
2021/08/11 10:09:31;;;;;;;4.17;3.23;;;;;;;24.32;53.83;98944.92;263531;1089;22895;-75
2021/08/11 10:14:37;;;;;;;3.75;3.10;;;;;;;24.46;54.21;98943.48;263362;1089;22799;-75
2021/08/11 10:19:44;;;;;;;4.15;3.05;;;;;;;24.60;53.43;98938.13;262996;1090;24160;-74
2021/08/11 10:24:52;;;;;;;4.93;3.45;;;;;;;24.65;52.42;98946.03;262928;1089;22979;-74
2021/08/11 10:29:57;;;;;;;4.20;3.50;;;;;;;24.63;51.96;98934.66;263391;1090;25989;-74
2021/08/11 10:35:02;;;;;;;5.90;3.70;;;;;;;24.66;52.53;98942.10;263082;1090;23379;-74
2021/08/11 10:40:06;;;;;;;4.68;3.80;;;;;;;24.73;51.49;98933.16;262852;1089;26494;-74
2021/08/11 10:45:11;;;;;;;5.80;4.20;;;;;;;24.92;52.02;98934.88;263307;1089;22776;-74
2021/08/11 10:50:15;;;;;;;4.00;3.33;;;;;;;24.81;51.52;98951.23;263106;1089;25887;-74
2021/08/11 10:55:40;;;;;;;5.73;3.57;;;;;;;24.57;51.72;98958.05;262880;1089;25905;-73
2021/08/11 11:00:56;;;;;;;2.28;2.08;;;;;;;24.58;49.96;98940.44;263084;1089;22878;-75
2021/08/11 11:06:02;;;;;;;2.63;2.38;;;;;;;24.70;49.35;98937.44;263109;1089;22805;-74
2021/08/11 11:11:27;;;;;;;3.35;2.90;;;;;;;24.98;49.40;98938.81;262759;1088;25877;-74
2021/08/11 11:17:02;;;;;;;3.88;2.68;;;;;;;25.11;48.28;98952.98;263208;1088;22752;-75
2021/08/11 11:22:41;;;;;;;3.40;3.05;;;;;;;24.94;48.54;98940.75;270194;1090;22557;-75
2021/08/11 11:27:45;;;;;;;3.83;2.78;;;;;;;24.86;49.22;98936.38;267713;1090;22767;-75
2021/08/11 11:32:48;;;;;;;3.08;2.60;;;;;;;25.04;49.15;98928.28;263301;1089;25986;-73
2021/08/11 11:38:07;;;;;;;3.35;2.65;;;;;;;25.36;48.07;98935.94;263141;1090;22785;-73
2021/08/11 11:43:32;;;;;;;3.15;2.73;;;;;;;25.51;49.21;98928.57;262884;1090;22815;-74
2021/08/11 11:49:01;;;;;;;3.97;2.40;;;;;;;25.41;47.99;98932.84;263209;1089;22780;-74
2021/08/11 11:54:25;;;;;;;3.25;2.30;;;;;;;25.37;47.58;98927.33;263150;1089;22760;-75
2021/08/11 11:59:29;;;;;;;3.53;2.35;;;;;;;25.42;47.25;98934.39;263604;1088;27536;-74
2021/08/11 12:04:33;;;;;;;2.60;2.40;;;;;;;25.48;47.45;98921.89;262886;1090;22859;-75
2021/08/11 12:09:46;;;;;;;3.10;2.63;;;;;;;25.20;47.73;98933.48;263274;1090;26005;-73
2021/08/11 12:14:49;;;;;;;2.48;2.28;;;;;;;24.82;47.71;98930.09;262859;1088;24177;-74
2021/08/11 12:19:52;;;;;;;3.35;2.65;;;;;;;24.79;48.42;98928.89;262941;1090;25928;-74
2021/08/11 12:24:55;;;;;;;2.40;2.20;;;;;;;24.96;47.57;98926.66;263083;1090;22765;-74
2021/08/11 12:30:16;;;;;;;4.28;2.50;;;;;;;24.85;47.79;98923.88;262990;1088;26271;-75
2021/08/11 12:35:19;;;;;;;2.73;2.33;;;;;;;24.99;48.37;98928.63;263337;1088;22774;-74
2021/08/11 12:40:33;;;;;;;2.78;2.13;;;;;;;25.12;47.65;98935.38;262888;1088;24342;-74
2021/08/11 12:45:48;;;;;;;3.58;2.85;;;;;;;25.15;47.62;98922.88;263035;1089;22953;-74
2021/08/11 12:50:53;;;;;;;2.35;2.15;;;;;;;25.26;46.60;98920.97;262947;1089;26305;-73
2021/08/11 12:56:16;;;;;;;2.08;1.75;;;;;;;25.45;46.05;98923.45;262735;1089;22815;-74
2021/08/11 13:01:44;;;;;;;2.90;2.38;;;;;;;25.62;45.79;98918.42;262985;1088;22804;-74
2021/08/11 13:06:50;;;;;;;2.35;2.15;;;;;;;25.60;45.73;98928.98;263096;1089;22776;-74
2021/08/11 13:12:00;;;;;;;2.53;2.33;;;;;;;25.43;45.41;98925.77;263015;1089;22758;-74
2021/08/11 13:17:17;;;;;;;2.85;2.18;;;;;;;25.21;45.32;98924.88;262987;1089;24359;-74
2021/08/11 13:22:27;;;;;;;2.43;2.13;;;;;;;25.10;45.35;98918.55;262942;1089;22789;-76
2021/08/11 13:27:32;;;;;;;1.88;1.63;;;;;;;25.13;45.95;98922.45;262803;1089;22971;-74
2021/08/11 13:32:36;;;;;;;2.53;2.33;;;;;;;25.20;45.73;98908.81;263302;1089;23330;-75
2021/08/11 13:37:40;;;;;;;2.30;2.10;;;;;;;25.21;45.96;98913.11;263361;1088;22798;-75
2021/08/11 13:42:43;;;;;;;2.60;2.15;;;;;;;25.14;45.79;98911.14;263063;1088;22767;-74
2021/08/11 13:47:59;;;;;;;2.15;2.03;;;;;;;25.10;46.23;98902.11;263044;1089;26401;-74
2021/08/11 13:53:15;;;;;;;2.15;1.93;;;;;;;25.04;45.66;98901.69;262939;1090;24514;-74
2021/08/11 13:58:20;;;;;;;2.20;2.00;;;;;;;25.04;45.75;98911.84;262993;1090;25042;-75
2021/08/11 14:03:23;;;;;;;2.00;1.85;;;;;;;25.09;45.73;98919.71;263200;1088;23502;-74
2021/08/11 14:08:27;;;;;;;2.50;2.20;;;;;;;25.08;45.91;98918.91;263579;1089;22824;-74
2021/08/11 14:13:31;;;;;;;2.23;2.10;;;;;;;25.27;45.75;98919.81;267242;1089;25993;-75
2021/08/11 14:18:35;;;;;;;2.23;1.95;;;;;;;25.68;45.58;98924.32;263129;1088;22860;-74
2021/08/11 14:23:39;;;;;;;2.60;1.93;;;;;;;25.87;44.80;98915.76;262814;1090;22806;-74
2021/08/11 14:28:43;;;;;;;2.00;1.80;;;;;;;25.81;44.36;98917.30;262809;1090;22787;-75
2021/08/11 14:33:46;;;;;;;4.88;2.55;;;;;;;25.65;44.13;98925.10;262950;1090;23398;-75
2021/08/11 14:38:50;;;;;;;2.88;2.30;;;;;;;25.42;43.95;98920.67;262774;1090;23453;-75
2021/08/11 14:43:53;;;;;;;2.90;2.28;;;;;;;25.20;44.71;98917.04;262927;1090;22754;-75
2021/08/11 14:48:56;;;;;;;3.40;2.20;;;;;;;25.19;45.03;98918.20;262897;1090;25880;-75
2021/08/11 14:54:00;;;;;;;1.90;1.80;;;;;;;25.36;44.78;98916.74;262780;1090;25955;-74
2021/08/11 14:59:03;;;;;;;2.00;1.90;;;;;;;25.35;44.78;98918.71;262846;1088;23401;-74
2021/08/11 15:04:08;;;;;;;2.53;1.88;;;;;;;25.37;44.48;98918.32;262736;1089;25880;-75
2021/08/11 15:09:13;;;;;;;3.60;2.25;;;;;;;25.15;44.74;98915.42;262763;1090;22932;-75
2021/08/11 15:14:16;;;;;;;3.30;1.80;;;;;;;25.01;45.05;98916.13;262734;1089;24483;-75
2021/08/11 15:19:21;;;;;;;2.95;1.63;;;;;;;25.03;44.97;98919.28;262955;1089;24323;-75
2021/08/11 15:24:24;;;;;;;3.68;1.85;;;;;;;24.94;44.90;98922.38;262718;1090;22829;-75
2021/08/11 15:29:33;;;;;;;2.88;2.05;;;;;;;24.94;45.39;98924.30;262802;1089;22759;-75
2021/08/11 15:34:43;;;;;;;2.90;1.93;;;;;;;24.80;45.50;98929.70;262481;1089;26092;-74
2021/08/11 15:39:47;;;;;;;2.20;2.00;;;;;;;24.65;45.73;98926.05;262784;1090;23219;-74
2021/08/11 15:44:50;;;;;;;2.30;2.10;;;;;;;24.58;45.64;98938.51;262784;1089;22867;-75
2021/08/11 15:49:53;;;;;;;2.35;2.10;;;;;;;24.47;46.08;98923.14;262792;1089;22931;-75
2021/08/11 15:54:57;;;;;;;2.75;1.98;;;;;;;24.40;45.98;98941.09;262837;1089;22813;-75
2021/08/11 16:00:00;;;;;;;4.85;2.03;;;;;;;24.36;46.53;98948.48;262683;1088;22846;-75
2021/08/11 16:05:08;;;;;;;2.20;2.00;;;;;;;24.50;46.33;98942.34;262977;1089;25964;-75
2021/08/11 16:10:12;;;;;;;2.50;2.30;;;;;;;24.49;46.08;98946.23;262828;1090;22780;-75
2021/08/11 16:15:37;;;;;;;3.73;2.03;;;;;;;24.32;45.94;98946.88;262484;1089;22864;-75
2021/08/11 16:20:42;;;;;;;2.30;2.10;;;;;;;24.15;46.00;98948.25;262776;1090;22773;-76
2021/08/11 16:25:45;;;;;;;2.43;1.90;;;;;;;23.96;46.09;98952.76;262817;1090;24316;-77
2021/08/11 16:30:49;;;;;;;2.33;1.53;;;;;;;23.82;46.58;98958.82;262925;1090;22792;-75
2021/08/11 16:35:52;;;;;;;2.38;1.70;;;;;;;23.76;47.06;98963.06;262804;1090;22818;-76
2021/08/11 16:41:00;;;;;;;2.53;1.93;;;;;;;23.67;47.29;98965.28;262836;1090;26085;-75
2021/08/11 16:46:03;;;;;;;2.30;1.90;;;;;;;23.60;47.14;98957.77;262743;1090;24463;-75
2021/08/11 16:51:06;;;;;;;3.20;1.78;;;;;;;23.42;47.42;98960.30;263142;1088;23405;-76
2021/08/11 16:56:11;;;;;;;2.00;1.80;;;;;;;23.21;47.61;98958.84;262787;1088;24349;-75
2021/08/11 17:01:36;;;;;;;2.20;1.95;;;;;;;23.00;47.89;98964.75;262962;1089;22788;-75
2021/08/11 17:06:39;;;;;;;5.83;2.75;;;;;;;22.78;48.13;98962.84;263066;1090;22811;-75
2021/08/11 17:11:42;;;;;;;2.53;2.03;;;;;;;22.58;48.73;98975.76;262852;1090;22905;-75
2021/08/11 17:16:46;;;;;;;3.30;2.33;;;;;;;22.39;49.15;98975.44;262942;1089;25842;-75
2021/08/11 17:21:49;;;;;;;2.93;2.23;;;;;;;22.20;49.53;98984.44;262879;1089;25903;-75
2021/08/11 17:26:52;;;;;;;5.60;2.05;;;;;;;22.04;49.84;98979.06;262725;1090;22914;-75
2021/08/11 17:32:02;;;;;;;2.33;2.10;;;;;;;21.95;50.19;98983.97;262790;1088;24077;-75
2021/08/11 17:37:06;;;;;;;3.98;2.60;;;;;;;21.85;50.37;98992.70;262895;1089;23298;-75
2021/08/11 17:42:10;;;;;;;2.75;2.28;;;;;;;21.75;50.64;98996.78;262708;1089;24312;-76
2021/08/11 17:47:13;;;;;;;2.30;2.10;;;;;;;21.67;51.11;98995.05;262835;1090;24345;-75
2021/08/11 17:52:16;;;;;;;2.93;2.00;;;;;;;21.63;51.12;98995.00;262712;1090;22747;-75
2021/08/11 17:57:19;;;;;;;2.00;1.80;;;;;;;21.56;51.38;98994.04;262855;1088;22841;-75
2021/08/11 18:02:23;;;;;;;2.60;2.30;;;;;;;21.41;51.25;98990.20;262386;1090;25848;-75
2021/08/11 18:07:28;;;;;;;2.80;2.20;;;;;;;21.19;51.78;98998.66;262804;1088;26130;-75
2021/08/11 18:12:31;;;;;;;2.38;2.18;;;;;;;20.98;52.11;98995.45;262754;1090;22785;-74
2021/08/11 18:17:35;;;;;;;2.50;2.20;;;;;;;20.79;52.75;99007.03;262432;1088;25987;-75
2021/08/11 18:22:39;;;;;;;3.10;2.30;;;;;;;20.59;52.94;99011.56;262858;1088;25884;-75
2021/08/11 18:27:42;;;;;;;2.15;1.90;;;;;;;20.39;53.27;99022.33;262769;1089;22778;-75
2021/08/11 18:32:59;;;;;;;3.15;2.10;;;;;;;20.21;54.09;99026.50;262878;1090;25865;-75
2021/08/11 18:38:20;;;;;;;4.00;2.30;;;;;;;19.98;54.17;99040.64;262645;1088;26024;-75
2021/08/11 18:43:23;;;;;;;2.27;2.07;;;;;;;19.79;55.29;99043.94;262655;1090;22853;-74
2021/08/11 18:48:27;;;;;;;5.85;2.40;;;;;;;19.60;55.52;99048.05;262973;1089;22844;-76
2021/08/11 18:53:30;;;;;;;5.05;2.65;;;;;;;19.50;55.89;99059.36;262691;1088;24115;-75
2021/08/11 18:58:34;;;;;;;4.60;2.47;;;;;;;19.44;56.41;99071.60;262838;1090;22777;-74
2021/08/11 19:03:37;;;;;;;4.70;3.00;;;;;;;19.37;57.10;99080.31;262816;1090;25787;-75
2021/08/11 19:08:40;;;;;;;10.40;3.80;;;;;;;19.29;57.46;99087.45;262723;1088;27243;-76
2021/08/11 19:13:46;;;;;;;3.05;2.50;;;;;;;19.18;57.65;99088.22;262788;1090;24665;-74
2021/08/11 19:18:50;;;;;;;4.20;2.90;;;;;;;19.04;58.22;99089.36;263096;1089;27076;-75
2021/08/11 19:23:55;;;;;;;4.50;2.30;;;;;;;18.89;58.54;99090.00;262750;1089;25713;-74
2021/08/11 19:28:58;;;;;;;4.23;2.70;;;;;;;18.77;59.30;99096.94;262680;1090;27376;-75
2021/08/11 19:34:03;;;;;;;4.10;2.90;;;;;;;18.70;59.64;99093.98;262661;1089;25957;-76
2021/08/11 19:39:09;;;;;;;4.10;2.90;;;;;;;18.61;60.24;99113.06;262730;1088;25985;-75
2021/08/11 19:44:12;;;;;;;4.47;2.90;;;;;;;18.47;60.52;99107.14;262680;1090;22851;-75
2021/08/11 19:49:15;;;;;;;3.85;3.00;;;;;;;18.35;60.70;99109.80;262612;1089;25986;-74
2021/08/11 19:54:19;;;;;;;5.13;2.70;;;;;;;18.23;60.97;99108.61;262699;1090;25982;-75
2021/08/11 19:59:22;;;;;;;3.30;2.60;;;;;;;18.15;61.40;99108.69;262664;1090;25933;-75
2021/08/11 20:04:26;;;;;;;5.40;3.07;;;;;;;18.06;61.14;99108.72;262636;1089;22919;-76
2021/08/11 20:09:30;;;;;;;3.45;2.95;;;;;;;18.00;61.37;99110.05;262813;1089;26114;-75
2021/08/11 20:14:33;;;;;;;4.55;3.35;;;;;;;17.89;61.22;99115.03;262670;1088;22916;-75
2021/08/11 20:19:37;;;;;;;3.70;2.95;;;;;;;17.78;61.14;99120.03;262786;1090;22905;-75
2021/08/11 20:24:41;;;;;;;4.80;3.23;;;;;;;17.69;61.44;99125.50;262673;1089;24339;-75
2021/08/11 20:29:46;;;;;;;3.55;2.60;;;;;;;17.59;61.86;99132.09;262826;1089;24365;-75
2021/08/11 20:34:50;;;;;;;4.30;3.10;;;;;;;17.55;62.05;99127.66;262721;1089;22929;-75
2021/08/11 20:39:53;;;;;;;7.40;3.43;;;;;;;17.52;62.47;99134.52;262868;1088;22808;-76
2021/08/11 20:44:57;;;;;;;6.67;4.47;;;;;;;17.48;62.92;99147.12;262777;1089;22815;-75
2021/08/11 20:50:00;;;;;;;5.85;3.25;;;;;;;17.44;63.05;99148.88;262717;1089;22784;-75
2021/08/11 20:55:04;;;;;;;4.55;2.80;;;;;;;17.46;63.10;99152.08;262714;1087;22857;-75
2021/08/11 21:00:08;;;;;;;4.15;2.80;;;;;;;17.44;63.58;99157.02;262908;1090;26292;-75
2021/08/11 21:05:12;;;;;;;4.00;3.40;;;;;;;17.44;63.77;99157.02;262743;1090;22790;-75
2021/08/11 21:10:15;;;;;;;4.35;3.70;;;;;;;17.38;63.87;99155.61;262766;1089;22777;-75
2021/08/11 21:15:19;;;;;;;4.60;3.45;;;;;;;17.29;64.19;99152.91;262965;1089;23392;-76
2021/08/11 21:20:23;;;;;;;5.15;3.20;;;;;;;17.17;64.52;99153.59;262818;1090;26008;-75
2021/08/11 21:25:28;;;;;;;6.55;3.80;;;;;;;17.06;65.04;99155.06;262666;1089;24061;-75
2021/08/11 21:30:31;;;;;;;5.53;4.10;;;;;;;16.99;65.40;99163.67;262835;1090;22867;-75
2021/08/11 21:35:36;;;;;;;5.13;4.57;;;;;;;16.93;65.82;99154.92;262714;1090;25880;-76
2021/08/11 21:40:40;;;;;;;5.60;4.30;;;;;;;16.88;66.23;99152.38;262651;1089;22763;-76
2021/08/11 21:45:44;;;;;;;7.05;4.30;;;;;;;16.78;66.61;99160.80;262670;1090;22857;-76
2021/08/11 21:50:48;;;;;;;4.65;4.10;;;;;;;16.76;67.00;99165.75;262841;1090;24058;-76
2021/08/11 21:56:00;;;;;;;5.60;4.90;;;;;;;16.76;67.35;99163.84;262858;1090;22764;-75
2021/08/11 22:01:14;;;;;;;5.23;4.73;;;;;;;16.71;67.42;99163.20;262687;1090;22770;-75
2021/08/11 22:06:19;;;;;;;4.25;3.80;;;;;;;16.62;68.11;99162.41;262697;1090;28802;-77
2021/08/11 22:11:23;;;;;;;4.75;3.85;;;;;;;16.54;68.41;99161.31;262670;1089;22843;-76
2021/08/11 22:16:27;;;;;;;4.70;4.30;;;;;;;16.48;68.65;99157.16;262732;1088;22769;-76
2021/08/11 22:21:30;;;;;;;5.60;4.23;;;;;;;16.34;68.92;99163.53;262873;1088;25877;-75
2021/08/11 22:26:33;;;;;;;4.60;4.00;;;;;;;16.22;69.47;99172.25;262958;1088;25990;-74
2021/08/11 22:31:37;;;;;;;4.50;3.83;;;;;;;16.15;69.86;99173.84;262838;1089;25883;-75
2021/08/11 22:36:40;;;;;;;8.30;4.53;;;;;;;16.14;70.29;99173.02;262672;1089;22810;-75
2021/08/11 22:41:44;;;;;;;8.90;5.50;;;;;;;16.18;70.72;99165.88;263017;1089;25977;-75
2021/08/11 22:46:48;;;;;;;7.70;5.60;;;;;;;16.15;70.64;99173.84;262746;1090;22794;-75
2021/08/11 22:51:53;;;;;;;6.70;5.50;;;;;;;16.05;70.68;99164.91;262734;1090;24036;-75
2021/08/11 22:56:57;;;;;;;7.15;5.50;;;;;;;15.98;71.11;99169.20;262763;1090;22825;-76
2021/08/11 23:02:01;;;;;;;9.73;6.30;;;;;;;15.92;71.50;99173.92;262865;1089;22790;-75
2021/08/11 23:07:06;;;;;;;8.97;6.83;;;;;;;15.83;71.57;99171.20;262802;1090;22763;-75
2021/08/11 23:12:09;;;;;;;6.83;5.33;;;;;;;15.79;71.83;99174.83;262786;1088;22794;-75
2021/08/11 23:17:13;;;;;;;8.37;5.20;;;;;;;15.70;72.17;99170.19;262678;1088;22838;-76
2021/08/11 23:22:16;;;;;;;8.90;6.60;;;;;;;15.66;72.38;99179.23;262757;1089;25966;-76
2021/08/11 23:27:19;;;;;;;8.25;6.35;;;;;;;15.61;72.47;99187.47;262664;1089;26015;-75
2021/08/11 23:32:23;;;;;;;9.27;5.70;;;;;;;15.53;72.47;99179.02;262773;1090;25868;-75
2021/08/11 23:37:26;;;;;;;7.90;5.43;;;;;;;15.54;72.86;99185.21;262739;1089;26072;-75
2021/08/11 23:42:29;;;;;;;9.00;5.95;;;;;;;15.53;72.91;99197.92;262764;1089;22825;-74
2021/08/11 23:47:33;;;;;;;8.75;5.90;;;;;;;15.52;73.18;99199.02;262699;1089;24635;-76